This is the latest recevied weather packets stored in our database for station/object GW1596. If no packets are shown the sender has not sent any weather packets the latest 10 day(s).
| Time | Temp. | Humidity | Pressure | Rain* | Wind** | Luminosity | Snow |
|---|---|---|---|---|---|---|---|
| 1777723604 | 2.78° C | 99% | 1019.3 hPa | 0 mm | - | - | - |
| 1777722891 | 2.22° C | 99% | 1019.3 hPa | 0 mm | - | - | - |
| 1777722152 | 1.67° C | 99% | 1019.6 hPa | 0 mm | - | - | - |
| 1777717127 | 1.11° C | 99% | 1019.3 hPa | 0 mm | - | - | - |
| 1777716391 | 1.67° C | 99% | 1019.3 hPa | 0 mm | - | - | - |
| 1777705944 | 2.22° C | 98% | 1018.9 hPa | 0 mm | - | - | - |
| 1777701647 | 2.22° C | 98% | 1019.6 hPa | 0 mm | - | - | - |
| 1777701288 | 2.22° C | 98% | 1019.6 hPa | 0 mm | - | - | - |
| 1777699821 | 2.22° C | 97% | 1019.9 hPa | 0 mm | - | - | - |
| 1777698388 | 2.22° C | 97% | 1019.9 hPa | 0 mm | - | - | - |
| 1777695875 | 2.22° C | 97% | 1019.9 hPa | 0 mm | - | - | - |
| 1777691175 | 3.89° C | 94% | 1019.6 hPa | 0.51 mm | - | - | - |
| 1777681112 | 10° C | 66% | 1017.2 hPa | 0.51 mm | - | - | - |
| 1777680766 | 10° C | 67% | 1016.9 hPa | 0.51 mm | - | - | - |
| 1777679693 | 11.11° C | 64% | 1016.5 hPa | 0.51 mm | - | - | - |
| 1777678973 | 11.67° C | 62% | 1015.9 hPa | 0.51 mm | - | - | - |
| 1777674654 | 11.67° C | 72% | 1015.5 hPa | 0.51 mm | - | - | - |
| 1777671759 | 10.56° C | 78% | 1015.5 hPa | 0.51 mm | - | - | - |
| 1777661322 | 15° C | 46% | 1014.2 hPa | 0.25 mm | - | - | - |
| 1777660943 | 15° C | 47% | 1013.8 hPa | 0.25 mm | - | - | - |
| 1777658814 | 15.56° C | 40% | 1013.8 hPa | 0.25 mm | - | - | - |
| 1777653757 | 15.56° C | 47% | 1014.9 hPa | 0.25 mm | - | - | - |
| 1777646530 | 13.33° C | 62% | 1015.9 hPa | 0.25 mm | - | - | - |
| 1777645821 | 13.33° C | 69% | 1015.5 hPa | 0.25 mm | - | - | - |
| 1777645450 | 12.78° C | 67% | 1015.5 hPa | 0.25 mm | - | - | - |
* Rain since midnight (hover to see other rain measurements)
** Current wind speed in m/s (hover to see current wind gust speed)